Time;durP1;ratioP1;P1;durP2;ratioP2;P2;SDS_P1;SDS_P2;PMS_P1;PMS_P2;Temp;Humidity;BMP_temperature;BMP_pressure;BME280_temperature;BME280_humidity;BME280_pressure;Samples;Min_cycle;Max_cycle;Signal;HPM_P1;HPM_P2
2022/07/28 00:01:50;;;;;;;2.25;1.50;;;;;;;15.01;61.14;101890.06;5089264;28;20027;-42
2022/07/28 00:04:15;;;;;;;4.70;1.63;;;;;;;15.00;60.75;101893.72;5090523;28;20020;-43
2022/07/28 00:06:40;;;;;;;4.22;1.80;;;;;;;14.97;61.26;101891.28;5077018;28;20028;-43
2022/07/28 00:09:06;;;;;;;5.53;1.57;;;;;;;14.96;60.97;101887.75;5076948;28;20437;-41
2022/07/28 00:11:31;;;;;;;2.00;1.30;;;;;;;14.94;61.10;101886.19;5080333;28;20273;-41
2022/07/28 00:13:56;;;;;;;4.22;1.60;;;;;;;14.92;60.93;101890.78;5073571;28;20303;-43
2022/07/28 00:16:21;;;;;;;3.20;1.77;;;;;;;14.88;60.98;101895.53;5085316;28;20029;-42
2022/07/28 00:18:47;;;;;;;5.50;1.55;;;;;;;14.86;61.28;101892.13;5092465;28;20278;-42
2022/07/28 00:21:12;;;;;;;6.70;1.77;;;;;;;14.84;61.28;101901.22;5091176;28;20052;-42
2022/07/28 00:23:38;;;;;;;6.70;1.60;;;;;;;14.81;61.19;101891.63;5078917;28;20282;-44
2022/07/28 00:26:03;;;;;;;6.43;1.88;;;;;;;14.80;61.46;101887.25;5084664;28;20355;-42
2022/07/28 00:28:28;;;;;;;6.00;1.50;;;;;;;14.78;61.65;101892.72;5090773;28;20032;-42
2022/07/28 00:30:54;;;;;;;3.72;1.50;;;;;;;14.77;61.62;101887.47;5090425;28;20028;-41
2022/07/28 00:33:20;;;;;;;5.47;1.80;;;;;;;14.73;61.48;101884.19;5077962;28;20097;-42
2022/07/28 00:35:45;;;;;;;4.57;1.70;;;;;;;14.70;61.50;101886.28;5091112;28;20059;-42
2022/07/28 00:38:10;;;;;;;4.55;1.50;;;;;;;14.69;61.35;101887.22;5077107;28;20213;-42
2022/07/28 00:43:19;;;;;;;8.05;1.83;;;;;;;14.63;61.68;101888.56;5081134;28;20281;-41
2022/07/28 00:45:44;;;;;;;5.30;1.70;;;;;;;14.61;61.92;101895.84;5083731;28;20028;-44
2022/07/28 00:48:10;;;;;;;3.17;1.70;;;;;;;14.61;61.20;101887.84;5074875;28;20029;-42
2022/07/28 00:53:06;;;;;;;4.53;1.73;;;;;;;14.57;61.71;101879.19;5087096;28;20314;-78
2022/07/28 00:55:32;;;;;;;5.65;1.70;;;;;;;14.54;61.87;101867.88;5087581;28;20436;-78
2022/07/28 00:58:00;;;;;;;3.90;1.63;;;;;;;14.51;62.22;101868.94;5092307;28;20037;-78
2022/07/28 01:00:25;;;;;;;6.35;1.80;;;;;;;14.51;62.28;101868.09;5092261;28;20032;-78
2022/07/28 01:02:51;;;;;;;4.10;1.42;;;;;;;14.47;62.54;101869.28;5080543;28;20016;-78
2022/07/28 01:05:17;;;;;;;3.22;1.65;;;;;;;14.48;62.11;101871.84;5092441;28;20390;-78
2022/07/28 01:08:00;;;;;;;4.63;1.33;;;;;;;14.46;62.07;101870.28;5086554;28;20107;-78
2022/07/28 01:10:39;;;;;;;4.47;1.67;;;;;;;14.42;62.46;101870.50;5083983;28;20501;-78
2022/07/28 01:13:21;;;;;;;7.78;1.70;;;;;;;14.40;62.37;101871.59;5090833;28;20505;-78
2022/07/28 01:15:56;;;;;;;4.72;1.90;;;;;;;14.35;62.29;101869.25;5096345;28;20028;-77
2022/07/28 01:18:25;;;;;;;4.85;1.58;;;;;;;14.33;62.96;101865.84;5087151;28;20077;-78
2022/07/28 01:21:24;;;;;;;5.18;1.70;;;;;;;14.38;61.99;101863.69;5075224;28;20020;-78
2022/07/28 01:24:04;;;;;;;6.88;1.85;;;;;;;14.33;62.20;101871.19;5081728;28;20036;-78
2022/07/28 01:26:53;;;;;;;7.38;1.92;;;;;;;14.32;62.07;101860.63;5092425;28;20052;-77
2022/07/28 01:30:03;;;;;;;4.30;1.98;;;;;;;14.33;61.98;101867.69;5093086;28;20027;-77
2022/07/28 01:32:36;;;;;;;2.88;2.00;;;;;;;14.19;63.05;101866.91;4968514;28;20042;-77
2022/07/28 01:35:20;;;;;;;5.78;2.33;;;;;;;14.17;63.07;101862.63;5082526;28;20412;-78
2022/07/28 01:37:50;;;;;;;4.82;1.92;;;;;;;14.13;63.25;101858.50;5085766;28;20034;-77
2022/07/28 01:40:19;;;;;;;5.93;2.10;;;;;;;14.12;63.59;101855.00;5093082;28;20078;-77
2022/07/28 01:42:51;;;;;;;5.25;1.98;;;;;;;14.06;63.61;101848.28;5092856;28;20028;-77
2022/07/28 01:45:19;;;;;;;9.82;2.15;;;;;;;14.02;64.07;101846.81;5095156;28;20344;-77
2022/07/28 01:47:47;;;;;;;5.63;2.40;;;;;;;14.01;64.00;101849.59;5075678;28;20123;-77
2022/07/28 01:50:14;;;;;;;5.00;2.20;;;;;;;13.97;64.18;101843.66;5074749;28;20087;-77
2022/07/28 01:52:41;;;;;;;6.68;2.28;;;;;;;13.95;64.49;101850.06;5092348;28;20051;-77
2022/07/28 01:55:08;;;;;;;4.53;1.95;;;;;;;13.94;64.43;101848.34;5093317;28;20067;-77
2022/07/28 01:57:35;;;;;;;7.57;2.33;;;;;;;13.88;64.71;101844.31;5092667;28;20047;-77
2022/07/28 02:00:01;;;;;;;10.25;2.20;;;;;;;13.83;65.12;101846.47;5093030;28;20047;-77
2022/07/28 02:02:29;;;;;;;5.85;1.88;;;;;;;13.82;65.10;101839.44;5092052;28;20038;-77
2022/07/28 02:04:57;;;;;;;4.13;2.15;;;;;;;13.80;64.79;101834.19;5092865;28;20028;-77
2022/07/28 02:07:25;;;;;;;6.72;2.22;;;;;;;13.76;64.79;101831.91;5092332;28;20031;-77
2022/07/28 02:09:53;;;;;;;6.70;2.25;;;;;;;13.69;65.30;101829.69;5092793;28;20034;-77
2022/07/28 02:12:19;;;;;;;7.23;2.10;;;;;;;13.66;65.12;101829.91;5092056;28;20031;-78
2022/07/28 02:14:48;;;;;;;5.05;2.33;;;;;;;13.66;65.53;101835.25;5085599;28;20078;-77
2022/07/28 02:17:17;;;;;;;5.32;1.88;;;;;;;13.65;65.56;101822.84;5057286;28;20025;-78
2022/07/28 02:19:44;;;;;;;11.00;2.47;;;;;;;13.63;65.43;101829.28;5083123;28;20387;-78
2022/07/28 02:22:11;;;;;;;4.30;2.15;;;;;;;13.57;65.89;101827.06;5074352;28;20024;-78
2022/07/28 02:24:37;;;;;;;5.60;2.22;;;;;;;13.57;65.86;101832.38;5094678;28;20331;-76
2022/07/28 02:27:17;;;;;;;5.82;2.30;;;;;;;13.58;65.18;101834.09;5077742;28;20475;-78
2022/07/28 02:29:51;;;;;;;5.78;2.47;;;;;;;13.53;65.80;101829.09;5095281;28;20028;-77
2022/07/28 02:32:27;;;;;;;3.00;2.28;;;;;;;13.48;65.79;101825.91;5095054;28;20100;-78
2022/07/28 02:34:59;;;;;;;6.85;2.30;;;;;;;13.47;65.88;101835.75;5094695;28;20042;-77
2022/07/28 02:37:26;;;;;;;3.33;2.15;;;;;;;13.46;65.69;101833.19;5095940;28;20053;-77
2022/07/28 02:39:56;;;;;;;4.72;2.50;;;;;;;13.42;66.20;101832.56;5095202;28;20544;-77
2022/07/28 02:42:27;;;;;;;9.52;2.90;;;;;;;13.42;65.77;101829.91;5095535;28;20427;-77
2022/07/28 02:44:59;;;;;;;8.25;2.78;;;;;;;13.37;66.28;101833.84;5094189;28;20107;-77
2022/07/28 02:47:27;;;;;;;5.82;2.17;;;;;;;13.33;66.26;101836.72;5085681;28;20088;-77
2022/07/28 02:49:54;;;;;;;4.78;2.53;;;;;;;13.31;66.18;101822.63;5095257;28;20047;-77
2022/07/28 02:52:22;;;;;;;5.85;2.53;;;;;;;13.26;66.06;101819.44;5095662;28;20486;-77
2022/07/28 02:54:50;;;;;;;6.20;2.45;;;;;;;13.24;66.40;101829.38;5097527;28;20402;-77
2022/07/28 02:57:17;;;;;;;6.47;2.25;;;;;;;13.21;66.05;101832.25;5097537;28;20431;-77
2022/07/28 02:59:43;;;;;;;7.57;2.25;;;;;;;13.15;66.32;101827.34;5091855;28;20059;-77
2022/07/28 03:02:10;;;;;;;4.45;2.55;;;;;;;13.17;66.19;101827.25;5097576;28;20031;-77
2022/07/28 03:07:19;;;;;;;5.45;2.50;;;;;;;13.14;66.56;101817.66;5089212;28;20418;-78
2022/07/28 03:09:46;;;;;;;4.90;2.72;;;;;;;13.18;65.96;101828.97;5097097;28;20028;-77
2022/07/28 03:12:12;;;;;;;6.90;2.83;;;;;;;13.15;65.89;101822.03;5097351;28;20561;-77
2022/07/28 03:14:38;;;;;;;5.03;2.50;;;;;;;13.12;66.01;101819.56;5096981;28;20028;-77
2022/07/28 03:17:04;;;;;;;7.35;2.30;;;;;;;13.08;65.81;101826.94;5096832;28;20463;-77
2022/07/28 03:19:30;;;;;;;7.80;2.33;;;;;;;13.08;65.71;101829.63;5097313;28;20081;-77
2022/07/28 03:21:55;;;;;;;7.20;2.42;;;;;;;13.04;66.26;101828.16;5097684;28;20027;-77
2022/07/28 03:24:24;;;;;;;7.70;2.33;;;;;;;13.02;65.96;101823.88;5096244;28;20471;-77
2022/07/28 03:27:03;;;;;;;4.97;2.22;;;;;;;12.99;65.57;101830.28;5097931;28;20023;-77
2022/07/28 03:29:31;;;;;;;4.65;2.10;;;;;;;12.94;66.11;101829.75;5095884;28;20053;-78
2022/07/28 03:31:58;;;;;;;5.45;2.10;;;;;;;12.92;66.05;101829.00;5097688;28;20026;-77
2022/07/28 03:34:24;;;;;;;3.95;2.45;;;;;;;12.89;66.10;101826.53;5097361;28;20077;-77
2022/07/28 03:36:55;;;;;;;4.25;1.80;;;;;;;12.90;66.06;101823.78;5096684;28;20398;-77
2022/07/28 03:39:23;;;;;;;5.28;2.20;;;;;;;12.90;65.79;101834.44;5097514;28;20530;-77
2022/07/28 03:41:51;;;;;;;6.25;2.30;;;;;;;12.92;66.03;101831.66;5083608;28;20471;-77
2022/07/28 03:44:17;;;;;;;8.27;2.30;;;;;;;12.89;65.85;101830.09;5097170;28;20122;-77
2022/07/28 03:46:44;;;;;;;5.05;2.13;;;;;;;12.88;65.57;101827.53;5079016;28;20028;-76
2022/07/28 03:49:09;;;;;;;5.85;2.13;;;;;;;12.81;65.81;101829.78;5078810;28;20028;-77
2022/07/28 03:51:34;;;;;;;5.40;2.00;;;;;;;12.76;66.05;101832.75;5096902;28;20043;-78
2022/07/28 03:54:00;;;;;;;4.40;1.97;;;;;;;12.76;66.02;101824.75;5097138;28;20024;-77
2022/07/28 03:56:25;;;;;;;3.10;2.00;;;;;;;12.70;66.36;101819.84;5098174;28;20764;-77
2022/07/28 03:58:50;;;;;;;6.57;2.22;;;;;;;12.71;66.07;101821.56;5099638;28;20042;-77
2022/07/28 04:01:15;;;;;;;7.13;2.30;;;;;;;12.71;65.97;101821.56;5099641;28;20391;-77
2022/07/28 04:03:41;;;;;;;4.63;2.47;;;;;;;12.69;66.22;101815.50;5100200;28;20471;-77
2022/07/28 04:06:06;;;;;;;3.85;2.25;;;;;;;12.66;66.34;101833.53;5100216;28;20028;-77
2022/07/28 04:08:32;;;;;;;9.27;2.50;;;;;;;12.62;66.84;101827.53;5099786;28;20053;-77
2022/07/28 04:10:57;;;;;;;2.47;2.15;;;;;;;12.61;66.81;101828.50;5099172;28;20531;-77
2022/07/28 04:13:22;;;;;;;6.55;2.30;;;;;;;12.55;66.79;101834.25;5101942;28;20114;-77
2022/07/28 04:15:47;;;;;;;7.13;2.70;;;;;;;12.55;66.63;101831.59;5099925;28;20024;-77
2022/07/28 04:18:13;;;;;;;3.70;2.40;;;;;;;12.55;66.74;101820.91;5080406;28;20416;-77
2022/07/28 04:20:38;;;;;;;6.95;2.60;;;;;;;12.53;66.94;101822.84;5099190;28;20803;-77
2022/07/28 04:23:03;;;;;;;5.28;2.13;;;;;;;12.51;66.84;101824.78;5093275;28;20119;-77
2022/07/28 04:25:28;;;;;;;4.65;2.30;;;;;;;12.47;67.12;101832.09;5090739;28;20367;-77
2022/07/28 04:27:54;;;;;;;6.85;2.40;;;;;;;12.48;67.00;101825.81;5096247;28;20032;-77
2022/07/28 04:30:23;;;;;;;6.00;2.22;;;;;;;12.46;67.30;101826.91;5096260;28;20070;-77
2022/07/28 04:32:50;;;;;;;5.40;2.10;;;;;;;12.48;67.68;101819.66;5096028;28;20027;-77
2022/07/28 04:35:16;;;;;;;4.90;2.03;;;;;;;12.49;67.58;101822.22;5096209;28;20036;-77
2022/07/28 04:37:42;;;;;;;6.38;2.30;;;;;;;12.49;67.50;101829.34;5095848;28;20385;-77
2022/07/28 04:40:10;;;;;;;4.72;2.30;;;;;;;12.45;67.61;101826.03;5095999;28;20035;-77
2022/07/28 04:42:37;;;;;;;5.00;2.88;;;;;;;12.46;67.92;101824.25;5096415;28;20053;-77
2022/07/28 04:45:06;;;;;;;6.38;2.35;;;;;;;12.44;67.75;101824.34;5096099;28;20446;-77
2022/07/28 04:47:32;;;;;;;8.93;2.85;;;;;;;12.45;67.79;101820.69;5076854;28;20077;-77
2022/07/28 04:49:57;;;;;;;7.57;2.38;;;;;;;12.43;68.08;101819.97;5094973;28;20032;-77
2022/07/28 04:52:24;;;;;;;6.63;2.50;;;;;;;12.48;67.88;101822.31;5076125;28;20048;-77
2022/07/28 04:54:49;;;;;;;5.80;3.38;;;;;;;12.49;68.19;101816.88;5094279;28;20413;-77
2022/07/28 04:57:15;;;;;;;4.63;2.85;;;;;;;12.48;68.34;101822.31;5094826;28;20103;-78
2022/07/28 04:59:40;;;;;;;5.07;2.63;;;;;;;12.53;67.80;101818.38;5095509;28;20024;-77
2022/07/28 05:02:06;;;;;;;7.80;2.78;;;;;;;12.56;68.20;101825.31;5081163;28;20036;-78
2022/07/28 05:04:31;;;;;;;7.95;2.70;;;;;;;12.58;68.08;101820.72;5095108;28;20474;-77
2022/07/28 05:06:57;;;;;;;6.32;2.83;;;;;;;12.62;67.95;101816.88;5095626;28;20051;-77
2022/07/28 05:09:22;;;;;;;8.98;2.67;;;;;;;12.63;68.19;101815.06;5088715;28;20095;-77
2022/07/28 05:11:48;;;;;;;5.28;2.58;;;;;;;12.63;68.40;101829.25;5081962;28;20024;-77
2022/07/28 05:14:13;;;;;;;5.35;2.30;;;;;;;12.66;67.97;101839.69;5079409;28;20434;-77
2022/07/28 05:16:38;;;;;;;4.82;2.97;;;;;;;12.68;68.60;101834.25;5094842;28;20036;-77
2022/07/28 05:19:04;;;;;;;6.68;2.80;;;;;;;12.66;68.54;101831.69;5094867;28;20111;-77
2022/07/28 05:21:29;;;;;;;5.70;2.60;;;;;;;12.71;68.42;101834.88;5095160;28;20028;-78
2022/07/28 05:23:54;;;;;;;10.10;2.88;;;;;;;12.73;68.63;101832.13;5094877;28;20293;-78
2022/07/28 05:26:20;;;;;;;6.32;3.05;;;;;;;12.79;68.47;101831.69;5081022;28;20024;-77
2022/07/28 05:28:45;;;;;;;7.68;3.10;;;;;;;12.87;68.13;101834.69;5082600;28;20042;-77
2022/07/28 05:31:11;;;;;;;11.43;2.72;;;;;;;12.91;68.34;101827.31;5092848;28;20032;-78
2022/07/28 05:33:36;;;;;;;9.18;3.20;;;;;;;12.99;68.29;101827.63;5095734;28;20020;-77
2022/07/28 05:36:02;;;;;;;6.90;3.10;;;;;;;13.09;68.09;101822.47;5092936;28;20081;-77
2022/07/28 05:38:29;;;;;;;7.75;3.28;;;;;;;13.18;67.78;101829.81;5082578;28;20036;-77
2022/07/28 05:40:54;;;;;;;7.38;2.75;;;;;;;13.22;67.59;101825.97;5095181;28;20375;-77
2022/07/28 05:43:20;;;;;;;8.45;2.85;;;;;;;13.30;67.31;101826.25;5095847;28;20130;-77
2022/07/28 05:45:46;;;;;;;5.72;2.67;;;;;;;13.42;67.06;101827.22;5095652;28;20111;-78
2022/07/28 05:48:11;;;;;;;6.32;2.60;;;;;;;13.61;66.92;101820.53;5096485;28;20020;-77
2022/07/28 05:50:37;;;;;;;6.68;2.67;;;;;;;13.75;66.14;101825.69;5095403;28;20397;-78
2022/07/28 05:53:02;;;;;;;4.50;2.78;;;;;;;13.86;65.92;101828.41;5089445;28;20048;-77
2022/07/28 05:55:28;;;;;;;7.40;2.92;;;;;;;13.94;65.76;101826.97;5096559;28;20056;-77
2022/07/28 05:57:53;;;;;;;7.90;2.60;;;;;;;14.00;65.77;101826.53;5096807;28;20352;-78
2022/07/28 06:00:20;;;;;;;6.93;2.83;;;;;;;14.08;65.12;101829.47;5099522;28;20039;-79
2022/07/28 06:02:47;;;;;;;5.85;2.50;;;;;;;14.13;65.32;101829.97;5103430;28;20103;-79
2022/07/28 06:05:15;;;;;;;8.60;2.40;;;;;;;14.16;64.85;101820.88;5084274;28;20021;-79
2022/07/28 06:07:41;;;;;;;7.93;2.80;;;;;;;14.24;64.81;101829.16;5081481;28;20463;-79
2022/07/28 06:10:14;;;;;;;5.95;2.50;;;;;;;14.32;64.72;101826.75;5098260;28;20055;-78
2022/07/28 06:12:50;;;;;;;8.27;2.90;;;;;;;14.37;64.28;101826.38;5092280;28;20028;-79
2022/07/28 06:15:25;;;;;;;8.05;2.72;;;;;;;14.39;64.16;101821.78;5096700;28;20082;-78
2022/07/28 06:17:52;;;;;;;5.13;2.50;;;;;;;14.42;63.86;101825.06;5095433;28;20028;-79
2022/07/28 06:20:19;;;;;;;8.77;2.35;;;;;;;14.44;64.25;101823.13;5075879;28;20126;-78
2022/07/28 06:22:46;;;;;;;8.52;2.67;;;;;;;14.48;63.88;101821.06;5094159;28;20032;-78
2022/07/28 06:25:20;;;;;;;8.52;2.42;;;;;;;14.40;63.85;101805.59;5093517;28;20048;-79
2022/07/28 06:27:47;;;;;;;8.07;2.50;;;;;;;14.58;63.84;101826.53;5093982;28;20516;-79
2022/07/28 06:30:13;;;;;;;5.88;2.58;;;;;;;14.61;63.04;101824.50;5094261;28;20443;-78
2022/07/28 06:32:38;;;;;;;8.00;2.70;;;;;;;14.66;62.85;101813.47;5091242;28;20036;-78
2022/07/28 06:35:04;;;;;;;4.18;2.03;;;;;;;14.74;63.02;101824.41;5086533;28;20039;-79
2022/07/28 06:37:30;;;;;;;10.50;2.97;;;;;;;14.88;62.62;101823.31;5091597;28;20032;-78
2022/07/28 06:39:55;;;;;;;6.10;2.40;;;;;;;15.01;61.90;101825.88;5093149;28;20090;-78
2022/07/28 06:42:20;;;;;;;9.32;2.70;;;;;;;15.13;62.15;101829.38;5083709;28;20024;-79
2022/07/28 06:44:46;;;;;;;12.43;3.05;;;;;;;15.27;60.84;101829.13;5092715;28;20046;-79
2022/07/28 06:47:11;;;;;;;6.60;2.53;;;;;;;15.36;60.65;101822.19;5093635;28;20370;-78
2022/07/28 06:49:36;;;;;;;9.20;2.90;;;;;;;15.45;60.13;101825.91;5093406;28;20024;-78
2022/07/28 06:52:02;;;;;;;10.57;2.23;;;;;;;15.56;60.42;101828.56;5092893;28;20691;-78
2022/07/28 06:54:27;;;;;;;5.32;2.05;;;;;;;15.65;60.25;101825.13;5093169;28;20290;-78
2022/07/28 06:56:52;;;;;;;8.13;2.58;;;;;;;15.71;59.72;101829.13;5093183;28;20024;-78
2022/07/28 06:59:18;;;;;;;6.05;2.33;;;;;;;15.84;59.22;101829.84;5093259;28;20554;-78
2022/07/28 07:01:43;;;;;;;5.15;2.15;;;;;;;15.98;58.51;101839.41;5092849;28;20032;-78
2022/07/28 07:04:08;;;;;;;5.32;2.08;;;;;;;16.06;58.48;101830.72;5074743;28;20115;-77
2022/07/28 07:06:34;;;;;;;7.00;2.20;;;;;;;16.09;57.62;101830.47;5089524;28;20032;-78
2022/07/28 07:09:00;;;;;;;6.65;2.20;;;;;;;16.16;57.65;101830.81;5093004;28;20040;-78
2022/07/28 07:11:26;;;;;;;4.38;1.88;;;;;;;16.26;57.77;101831.72;5096290;28;20486;-78
2022/07/28 07:13:51;;;;;;;5.50;2.10;;;;;;;16.36;56.84;101826.44;5064366;28;20024;-78
2022/07/28 07:16:17;;;;;;;5.97;1.90;;;;;;;16.58;56.14;101822.75;5078999;28;20027;-78
2022/07/28 07:18:43;;;;;;;8.45;2.22;;;;;;;16.87;55.88;101820.25;5097681;28;20070;-77
2022/07/28 07:21:08;;;;;;;7.38;1.90;;;;;;;17.20;54.97;101829.81;5078654;28;20055;-78
2022/07/28 07:23:34;;;;;;;5.43;2.08;;;;;;;17.53;54.56;101824.22;5096717;28;20032;-78
2022/07/28 07:26:00;;;;;;;6.93;2.05;;;;;;;17.76;53.26;101824.81;5096871;28;20020;-78
2022/07/28 07:28:25;;;;;;;7.00;2.30;;;;;;;18.08;53.19;101823.69;5096827;28;20053;-77
2022/07/28 07:30:51;;;;;;;6.35;2.10;;;;;;;18.18;52.04;101821.00;5091663;28;20028;-79
2022/07/28 07:33:16;;;;;;;6.00;2.00;;;;;;;18.35;52.01;101822.09;5096370;28;20020;-78
2022/07/28 07:35:41;;;;;;;7.78;1.90;;;;;;;18.42;51.69;101820.56;5094605;28;20032;-77
2022/07/28 07:38:07;;;;;;;6.65;1.70;;;;;;;18.47;51.47;101820.97;5083877;28;20039;-78
2022/07/28 07:40:32;;;;;;;6.05;1.88;;;;;;;18.46;51.22;101817.41;5095754;28;20032;-78
2022/07/28 07:42:58;;;;;;;3.80;1.75;;;;;;;18.59;50.65;101811.72;5077294;28;20141;-77
2022/07/28 07:45:23;;;;;;;9.05;1.70;;;;;;;18.81;50.59;101807.78;5077708;28;20071;-78
2022/07/28 07:47:48;;;;;;;3.60;2.00;;;;;;;19.02;49.40;101806.75;5078505;28;20036;-78
2022/07/28 07:50:13;;;;;;;8.47;2.03;;;;;;;19.20;48.98;101801.41;5096012;28;20430;-77
2022/07/28 07:52:39;;;;;;;8.85;1.95;;;;;;;19.37;48.71;101808.69;5072512;28;20303;-79
2022/07/28 07:55:05;;;;;;;6.53;2.00;;;;;;;19.53;48.40;101810.69;5086634;28;20488;-79
2022/07/28 07:57:30;;;;;;;6.05;1.95;;;;;;;19.78;47.68;101809.13;5076650;28;20327;-78
2022/07/28 07:59:56;;;;;;;4.10;1.73;;;;;;;20.14;47.15;101805.53;5085327;28;20455;-79
2022/07/28 08:02:21;;;;;;;3.70;1.90;;;;;;;20.25;46.25;101801.72;5095602;28;20062;-78
2022/07/28 08:04:46;;;;;;;7.95;2.20;;;;;;;20.52;45.99;101801.56;5074942;28;20777;-79
2022/07/28 08:07:11;;;;;;;6.23;1.93;;;;;;;20.74;45.42;101802.06;5088370;28;20024;-79
2022/07/28 08:09:37;;;;;;;6.07;1.90;;;;;;;21.01;45.23;101792.88;5094895;28;20347;-79
2022/07/28 08:12:03;;;;;;;7.90;2.10;;;;;;;21.15;43.98;101793.25;5095669;28;20016;-79
2022/07/28 08:14:28;;;;;;;2.75;1.40;;;;;;;21.36;44.04;101799.06;5069751;28;20071;-79
2022/07/28 08:16:55;;;;;;;6.10;1.85;;;;;;;21.42;43.04;101797.56;5093166;28;20020;-79
2022/07/28 08:19:20;;;;;;;7.63;1.80;;;;;;;21.49;42.61;101798.63;5095865;28;20047;-79
2022/07/28 08:21:46;;;;;;;11.70;2.10;;;;;;;21.56;42.99;101791.53;5094531;28;20024;-79
2022/07/28 08:24:11;;;;;;;4.97;1.60;;;;;;;21.66;42.44;101796.78;5095606;28;20044;-78
2022/07/28 08:26:36;;;;;;;5.97;1.80;;;;;;;21.81;42.41;101795.09;5095126;28;20286;-78
2022/07/28 08:29:02;;;;;;;7.00;1.60;;;;;;;22.06;42.51;101788.84;5095273;28;20274;-78
2022/07/28 08:31:27;;;;;;;5.25;1.92;;;;;;;22.36;41.89;101784.59;5091639;28;20294;-78
2022/07/28 08:33:52;;;;;;;4.25;1.40;;;;;;;22.42;40.87;101791.19;5095502;28;20027;-78
2022/07/28 08:36:18;;;;;;;4.35;1.70;;;;;;;22.56;40.50;101792.34;5095349;28;20108;-78
2022/07/28 08:38:44;;;;;;;4.38;1.83;;;;;;;22.69;40.39;101784.50;5096127;28;20040;-79
2022/07/28 08:41:18;;;;;;;5.63;1.65;;;;;;;22.85;41.03;101780.91;5082320;28;20020;-79
2022/07/28 08:43:46;;;;;;;4.05;1.52;;;;;;;22.80;40.43;101789.56;5096287;28;20032;-78
2022/07/28 08:46:12;;;;;;;6.28;1.48;;;;;;;23.09;40.25;101790.78;5096712;28;20089;-79
2022/07/28 08:48:37;;;;;;;6.90;1.70;;;;;;;23.14;40.06;101787.56;5074029;28;20549;-79
2022/07/28 08:51:11;;;;;;;9.93;2.10;;;;;;;23.35;39.94;101785.06;5070537;28;20116;-80
2022/07/28 08:53:38;;;;;;;6.93;1.75;;;;;;;23.40;39.38;101790.78;5066869;28;20083;-80
2022/07/28 08:56:07;;;;;;;5.82;1.67;;;;;;;23.44;38.86;101792.09;5073011;28;20035;-80
2022/07/28 08:58:35;;;;;;;6.07;1.70;;;;;;;23.32;38.42;101773.75;5072911;28;20032;-80
2022/07/28 09:01:02;;;;;;;5.95;2.08;;;;;;;23.52;38.87;101777.66;5066172;28;20368;-80
2022/07/28 09:03:28;;;;;;;5.07;1.98;;;;;;;23.83;38.66;101777.63;5070861;28;20090;-80
2022/07/28 09:05:55;;;;;;;5.47;1.83;;;;;;;23.96;38.49;101776.97;5071084;28;20444;-79
2022/07/28 09:08:21;;;;;;;5.05;1.48;;;;;;;24.11;37.79;101758.00;5074615;28;20032;-78
2022/07/28 09:10:47;;;;;;;5.70;1.48;;;;;;;24.10;37.47;101764.47;5074689;28;20035;-79
2022/07/28 09:13:13;;;;;;;7.40;1.65;;;;;;;24.32;37.56;101756.47;5067993;28;20429;-79
2022/07/28 09:15:39;;;;;;;7.03;1.60;;;;;;;24.44;37.96;101749.53;5070705;28;20043;-80
2022/07/28 09:18:04;;;;;;;7.70;1.70;;;;;;;24.41;36.96;101749.88;5071816;28;20460;-80
2022/07/28 09:20:29;;;;;;;5.63;1.70;;;;;;;24.70;37.00;101742.81;5073220;28;20033;-79
2022/07/28 09:23:06;;;;;;;4.60;1.60;;;;;;;24.66;36.42;101745.03;5066337;28;20116;-79
2022/07/28 09:25:32;;;;;;;3.40;1.40;;;;;;;24.53;36.38;101744.81;5061609;28;20371;-79
2022/07/28 09:28:05;;;;;;;7.00;2.03;;;;;;;24.50;36.78;101739.78;5067238;28;20024;-79
2022/07/28 09:30:33;;;;;;;6.93;2.00;;;;;;;24.60;36.28;101729.50;5071670;28;20020;-79
2022/07/28 09:33:19;;;;;;;2.67;1.30;;;;;;;24.84;36.77;101728.34;5066003;28;20112;-79
2022/07/28 09:35:56;;;;;;;4.93;1.25;;;;;;;24.84;36.37;101713.91;5068988;28;20283;-80
2022/07/28 09:38:24;;;;;;;6.65;1.80;;;;;;;25.19;35.47;101712.19;5066204;28;20357;-79
2022/07/28 09:41:00;;;;;;;3.97;1.90;;;;;;;25.29;36.00;101720.91;5070042;28;20383;-79
2022/07/28 09:43:39;;;;;;;5.88;1.70;;;;;;;25.46;35.69;101717.94;5060441;28;20037;-80
2022/07/28 09:46:15;;;;;;;5.07;1.85;;;;;;;25.63;35.52;101715.78;5065852;28;20024;-79
2022/07/28 09:48:54;;;;;;;4.38;1.65;;;;;;;25.53;35.51;101712.56;5053968;28;20036;-79
2022/07/28 09:51:24;;;;;;;9.38;1.80;;;;;;;25.60;34.18;101725.19;5071297;28;20059;-79
2022/07/28 09:53:51;;;;;;;3.65;1.50;;;;;;;25.71;33.29;101712.91;5075539;28;20058;-80
2022/07/28 09:56:17;;;;;;;4.72;1.45;;;;;;;25.85;33.47;101717.44;5071137;28;20116;-80
2022/07/28 09:58:53;;;;;;;4.28;1.50;;;;;;;25.99;33.86;101715.66;5092599;28;20036;-79
2022/07/28 10:01:19;;;;;;;5.03;1.73;;;;;;;26.27;33.56;101713.97;5093394;28;20451;-80
2022/07/28 10:03:50;;;;;;;5.13;1.63;;;;;;;26.53;32.82;101715.97;5094119;28;20046;-79
2022/07/28 10:06:23;;;;;;;6.10;1.63;;;;;;;26.52;33.00;101717.03;5095094;28;20047;-79
2022/07/28 10:08:50;;;;;;;3.45;1.33;;;;;;;26.53;31.65;101718.69;5090064;28;20032;-79
2022/07/28 10:11:18;;;;;;;7.47;1.60;;;;;;;26.68;32.38;101719.44;5085745;28;20371;-79
2022/07/28 10:14:04;;;;;;;4.15;1.30;;;;;;;27.01;32.46;101712.41;5084274;28;20036;-79
2022/07/28 10:16:45;;;;;;;5.10;1.50;;;;;;;26.98;31.29;101712.81;5071725;28;20055;-79
2022/07/28 10:19:10;;;;;;;6.10;1.80;;;;;;;27.01;31.09;101715.13;5090671;28;20063;-78
2022/07/28 10:21:44;;;;;;;5.07;1.60;;;;;;;26.82;31.54;101708.59;5073966;28;20431;-78
2022/07/28 10:24:19;;;;;;;8.13;1.58;;;;;;;26.71;30.86;101699.97;5093834;28;20339;-78
2022/07/28 10:26:46;;;;;;;4.00;1.35;;;;;;;27.10;30.67;101706.56;5093935;28;20020;-79
2022/07/28 10:29:16;;;;;;;5.20;1.52;;;;;;;27.14;30.82;101707.81;5088303;28;20031;-79
2022/07/28 10:31:47;;;;;;;3.38;1.30;;;;;;;27.12;30.60;101707.19;5093148;28;20032;-79
2022/07/28 10:34:30;;;;;;;4.25;1.08;;;;;;;27.42;31.08;101700.56;5093359;28;20463;-78
2022/07/28 10:37:01;;;;;;;4.13;1.40;;;;;;;27.36;29.79;101696.75;5087531;28;20467;-78
2022/07/28 10:39:36;;;;;;;2.40;1.33;;;;;;;27.19;29.64;101700.91;5090348;28;20036;-78
2022/07/28 10:42:01;;;;;;;7.20;1.98;;;;;;;27.52;31.03;101694.69;5084541;28;20085;-78
2022/07/28 10:44:28;;;;;;;2.95;1.25;;;;;;;27.65;30.23;101700.16;5093992;28;20024;-78
2022/07/28 10:46:55;;;;;;;3.90;1.08;;;;;;;27.62;28.74;101697.84;5095560;28;20032;-78
2022/07/28 10:49:21;;;;;;;3.97;1.20;;;;;;;27.59;29.27;101695.53;5090797;28;20074;-77
2022/07/28 10:51:47;;;;;;;4.55;1.25;;;;;;;27.64;29.32;101688.38;5092401;28;20040;-78
2022/07/28 10:54:21;;;;;;;5.55;1.20;;;;;;;27.78;29.72;101685.63;5071633;28;20441;-78
2022/07/28 10:56:49;;;;;;;4.72;1.30;;;;;;;27.66;29.73;101693.63;5091140;28;20028;-78
2022/07/28 10:59:28;;;;;;;4.45;1.50;;;;;;;27.59;30.25;101685.44;5088478;28;20020;-79
2022/07/28 11:01:53;;;;;;;3.95;1.20;;;;;;;27.86;29.67;101690.88;5073498;28;20027;-78
2022/07/28 11:04:51;;;;;;;3.58;1.20;;;;;;;28.20;30.67;101676.13;5096868;28;20348;-78
2022/07/28 11:07:17;;;;;;;;;;;;;;;28.54;30.68;101687.75;5069223;28;20043;-78
2022/07/28 11:09:44;;;;;;;5.72;1.48;;;;;;;27.99;28.76;101685.41;5095985;28;19912;-80
2022/07/28 11:12:14;;;;;;;3.45;1.45;;;;;;;28.12;28.82;101690.00;5095927;28;20099;-78
2022/07/28 11:14:40;;;;;;;4.45;1.50;;;;;;;27.99;28.06;101679.94;5077863;28;20480;-78
2022/07/28 11:17:05;;;;;;;5.22;1.20;;;;;;;28.16;28.24;101674.03;5084698;28;20038;-78
2022/07/28 11:19:49;;;;;;;6.53;1.37;;;;;;;28.05;28.36;101662.72;5092662;28;20028;-79
2022/07/28 11:22:15;;;;;;;2.83;1.10;;;;;;;28.02;27.94;101659.59;5097119;28;20099;-78
2022/07/28 11:24:56;;;;;;;13.18;1.60;;;;;;;28.30;29.13;101662.03;5096685;28;20020;-78
2022/07/28 11:27:46;;;;;;;4.55;1.15;;;;;;;28.36;29.55;101665.78;5084487;28;20479;-79
2022/07/28 11:30:43;;;;;;;7.57;1.75;;;;;;;28.30;29.32;101662.03;5096669;28;20012;-77
2022/07/28 11:33:08;;;;;;;6.32;1.70;;;;;;;28.29;28.70;101659.50;5065400;28;20459;-77
2022/07/28 11:35:40;;;;;;;7.07;1.65;;;;;;;28.36;28.36;101655.69;5096093;28;20031;-78
2022/07/28 11:38:10;;;;;;;9.35;1.67;;;;;;;28.37;28.01;101657.34;5091800;28;20383;-77